Time;durP1;ratioP1;P1;durP2;ratioP2;P2;SDS_P1;SDS_P2;PMS_P1;PMS_P2;Temp;Humidity;BMP_temperature;BMP_pressure;BME280_temperature;BME280_humidity;BME280_pressure;Samples;Min_cycle;Max_cycle;Signal;HPM_P1;HPM_P2
2022/08/04 00:02:23;;;;;;;13.80;7.45;;;;;;;18.34;58.93;99822.03;4991374;28;20043;-75
2022/08/04 00:04:49;;;;;;;8.37;7.50;;;;;;;18.33;59.18;99818.50;4977420;28;20054;-75
2022/08/04 00:07:29;;;;;;;9.40;7.60;;;;;;;18.32;58.93;99818.66;4991882;28;20039;-75
2022/08/04 00:10:00;;;;;;;13.10;7.40;;;;;;;18.39;58.75;99817.00;4992240;28;20054;-75
2022/08/04 00:12:29;;;;;;;8.10;7.30;;;;;;;18.39;58.75;99825.09;4977113;28;20054;-75
2022/08/04 00:14:58;;;;;;;9.98;7.82;;;;;;;18.34;58.67;99830.16;4975848;28;20050;-82
2022/08/04 00:17:29;;;;;;;9.18;7.15;;;;;;;18.26;58.68;99813.88;4959801;28;20043;-76
2022/08/04 00:19:59;;;;;;;7.45;6.50;;;;;;;18.26;58.83;99819.31;4992444;28;20438;-76
2022/08/04 00:22:30;;;;;;;8.85;7.28;;;;;;;18.32;58.76;99824.09;4976769;28;20098;-76
2022/08/04 00:25:01;;;;;;;9.57;6.90;;;;;;;18.26;58.59;99813.88;4975567;28;20042;-75
2022/08/04 00:27:28;;;;;;;8.30;6.10;;;;;;;18.31;58.72;99835.91;4975461;28;20043;-75
2022/08/04 00:29:56;;;;;;;6.90;6.07;;;;;;;18.37;58.51;99832.56;4976499;28;20058;-75
2022/08/04 00:32:22;;;;;;;8.50;5.40;;;;;;;18.45;58.27;99833.44;4977016;28;20154;-76
2022/08/04 00:34:49;;;;;;;8.13;5.70;;;;;;;18.46;58.25;99831.56;4976485;28;20050;-74
2022/08/04 00:37:15;;;;;;;13.05;5.65;;;;;;;18.43;57.91;99837.34;4976434;28;20039;-74
2022/08/04 00:39:42;;;;;;;8.52;5.30;;;;;;;18.45;58.05;99835.31;4976526;28;20065;-75
2022/08/04 00:42:17;;;;;;;6.85;5.53;;;;;;;18.57;57.98;99842.13;4976059;28;20486;-75
2022/08/04 00:45:02;;;;;;;5.93;5.10;;;;;;;18.56;57.67;99842.28;4974636;28;20518;-76
2022/08/04 00:48:03;;;;;;;9.50;4.95;;;;;;;18.57;57.85;99844.00;4990855;28;20475;-77
2022/08/04 00:50:47;;;;;;;15.45;4.90;;;;;;;18.68;57.56;99852.66;4974967;28;20050;-75
2022/08/04 00:53:24;;;;;;;8.95;4.57;;;;;;;18.78;57.13;99846.31;4991581;28;20387;-75
2022/08/04 00:56:03;;;;;;;16.88;5.95;;;;;;;18.90;57.38;99842.28;4991201;28;20410;-76
2022/08/04 00:58:53;;;;;;;8.23;4.78;;;;;;;18.97;56.83;99837.91;4974628;28;20050;-75
2022/08/04 01:01:40;;;;;;;6.93;4.28;;;;;;;19.09;56.33;99852.84;4958325;28;20051;-76
2022/08/04 01:04:14;;;;;;;6.20;4.63;;;;;;;19.18;56.00;99853.72;4975555;28;20442;-76
2022/08/04 01:07:02;;;;;;;7.78;4.85;;;;;;;19.11;55.63;99840.00;4991676;28;20043;-76
2022/08/04 01:09:50;;;;;;;8.65;6.20;;;;;;;19.08;55.85;99853.88;4991812;28;20047;-76
2022/08/04 01:12:52;;;;;;;14.73;6.07;;;;;;;18.99;55.87;99856.72;4991691;28;20058;-77
2022/08/04 01:16:02;;;;;;;8.52;4.97;;;;;;;18.95;56.34;99864.31;4974919;28;20149;-76
2022/08/04 01:18:52;;;;;;;7.72;6.07;;;;;;;18.91;56.60;99866.50;4975548;28;20141;-76
2022/08/04 01:21:55;;;;;;;13.77;5.32;;;;;;;18.85;56.90;99864.47;4976436;28;20133;-75
2022/08/04 01:24:49;;;;;;;9.05;6.03;;;;;;;18.88;57.00;99863.28;4990436;28;20410;-76
2022/08/04 01:27:24;;;;;;;11.40;5.63;;;;;;;18.74;57.23;99856.63;4975363;28;20184;-75
2022/08/04 01:29:53;;;;;;;11.55;5.47;;;;;;;18.90;56.89;99866.69;4990503;28;20074;-76
2022/08/04 01:32:24;;;;;;;11.10;6.22;;;;;;;19.00;56.83;99861.13;4990445;28;20050;-76
2022/08/04 01:34:54;;;;;;;9.98;6.10;;;;;;;19.03;56.85;99867.06;4990460;28;20042;-76
2022/08/04 01:37:39;;;;;;;12.50;6.35;;;;;;;19.20;56.84;99872.53;4973950;28;20082;-76
2022/08/04 01:40:07;;;;;;;6.15;5.65;;;;;;;19.35;56.07;99866.28;4990152;28;20062;-75
2022/08/04 01:42:35;;;;;;;7.60;6.10;;;;;;;19.46;56.24;99870.56;4989985;28;20043;-76
2022/08/04 01:45:07;;;;;;;11.60;6.40;;;;;;;19.54;56.61;99870.56;4974587;28;20047;-76
2022/08/04 01:47:36;;;;;;;8.60;5.95;;;;;;;19.71;57.22;99881.44;4973472;28;20038;-76
2022/08/04 01:50:08;;;;;;;11.85;6.50;;;;;;;20.01;56.75;99877.22;4974650;28;20039;-76
2022/08/04 01:52:37;;;;;;;11.57;6.72;;;;;;;20.25;57.41;99884.50;4974662;28;20490;-75
2022/08/04 01:55:05;;;;;;;13.00;6.80;;;;;;;20.43;56.72;99879.72;4973525;28;20537;-75
2022/08/04 01:57:33;;;;;;;14.30;6.15;;;;;;;20.59;56.16;99882.41;4973392;28;20053;-75
2022/08/04 02:00:00;;;;;;;11.98;6.57;;;;;;;20.77;55.42;99884.06;4973506;28;20049;-76
2022/08/04 02:02:26;;;;;;;7.15;6.20;;;;;;;20.91;54.92;99891.50;4974546;28;20154;-75
2022/08/04 02:04:52;;;;;;;14.13;6.70;;;;;;;20.98;54.84;99897.88;4974400;28;20157;-75
2022/08/04 02:07:39;;;;;;;20.70;6.95;;;;;;;21.12;53.83;99899.03;4974466;28;20042;-75
2022/08/04 02:10:06;;;;;;;16.63;6.25;;;;;;;21.22;53.09;99909.69;4973409;28;20146;-76
2022/08/04 02:12:55;;;;;;;16.13;6.97;;;;;;;21.00;52.03;99900.44;4973328;28;20054;-76
2022/08/04 02:15:46;;;;;;;12.13;6.70;;;;;;;20.68;52.74;99912.25;4974650;28;20042;-75
2022/08/04 02:18:20;;;;;;;15.38;6.53;;;;;;;20.64;52.54;99916.34;4972992;28;20371;-76
2022/08/04 02:20:47;;;;;;;10.00;6.68;;;;;;;20.69;53.00;99919.41;4989254;28;20130;-75
2022/08/04 02:23:19;;;;;;;17.65;6.28;;;;;;;20.65;53.18;99908.06;4988789;28;20058;-76
2022/08/04 02:25:59;;;;;;;14.85;6.95;;;;;;;20.74;53.07;99908.88;4974132;28;20576;-76
2022/08/04 02:28:39;;;;;;;14.35;6.65;;;;;;;20.77;52.38;99913.94;4972755;28;20067;-75
2022/08/04 02:31:29;;;;;;;13.98;7.65;;;;;;;20.43;53.00;99903.31;4972872;28;20059;-76
2022/08/04 02:34:01;;;;;;;16.70;7.90;;;;;;;20.58;53.00;99916.03;4989154;28;20050;-75
2022/08/04 02:36:34;;;;;;;20.50;8.02;;;;;;;20.45;53.48;99912.97;4989117;28;20047;-78
2022/08/04 02:39:02;;;;;;;14.30;9.52;;;;;;;20.48;53.26;99923.50;4973801;28;20105;-77
2022/08/04 02:41:30;;;;;;;13.77;10.73;;;;;;;20.55;53.43;99929.97;4989013;28;20125;-76
2022/08/04 02:43:59;;;;;;;14.18;11.73;;;;;;;20.37;53.70;99915.69;4989097;28;20109;-77
2022/08/04 02:46:25;;;;;;;;;;;;;;;20.39;53.93;99924.53;4974200;28;20053;-76
2022/08/04 02:48:53;;;;;;;19.45;12.30;;;;;;;20.48;53.56;99919.94;4972772;28;19958;-79
2022/08/04 02:51:28;;;;;;;20.65;12.32;;;;;;;20.65;53.48;99916.19;4972525;28;20398;-76
2022/08/04 02:53:56;;;;;;;20.70;11.75;;;;;;;20.70;53.51;99921.94;4988508;28;20142;-76
2022/08/04 02:56:24;;;;;;;12.20;10.80;;;;;;;20.74;53.30;99926.00;4973670;28;20038;-78
2022/08/04 02:59:05;;;;;;;19.05;11.35;;;;;;;20.68;53.78;99923.13;4972584;28;20101;-77
2022/08/04 03:01:32;;;;;;;16.75;11.80;;;;;;;20.79;53.64;99925.47;4973686;28;20142;-77
2022/08/04 03:04:22;;;;;;;19.95;12.43;;;;;;;20.85;53.67;99938.38;4972334;28;20050;-78
2022/08/04 03:07:20;;;;;;;19.10;12.75;;;;;;;20.76;54.14;99940.28;4988795;28;20073;-76
2022/08/04 03:10:16;;;;;;;24.23;12.60;;;;;;;20.67;54.24;99938.59;4988816;28;20414;-79
2022/08/04 03:12:42;;;;;;;23.92;12.20;;;;;;;20.80;54.13;99943.50;4989108;28;20050;-76
2022/08/04 03:15:19;;;;;;;18.45;10.30;;;;;;;20.83;54.13;99934.97;4974049;28;20181;-77
2022/08/04 03:18:23;;;;;;;21.05;9.82;;;;;;;20.98;53.74;99941.38;4975158;28;20150;-76
2022/08/04 03:21:13;;;;;;;22.25;8.25;;;;;;;21.03;52.96;99947.16;4972715;28;20565;-76
2022/08/04 03:24:06;;;;;;;15.07;7.78;;;;;;;21.05;52.78;99938.81;4989422;28;20141;-78
2022/08/04 03:26:47;;;;;;;18.13;7.43;;;;;;;21.09;52.68;99941.00;4989169;28;20043;-77
2022/08/04 03:29:28;;;;;;;23.77;8.52;;;;;;;21.02;53.15;99953.59;4988742;28;20366;-75
2022/08/04 03:31:57;;;;;;;20.65;8.32;;;;;;;20.93;53.34;99949.22;4989001;28;20074;-76
2022/08/04 03:34:44;;;;;;;30.02;9.32;;;;;;;20.78;53.59;99953.69;4992624;28;20595;-77
2022/08/04 03:37:45;;;;;;;26.45;8.52;;;;;;;20.73;53.80;99958.78;4977439;28;20145;-79
2022/08/04 03:40:29;;;;;;;22.05;7.22;;;;;;;20.51;53.72;99953.06;4977918;28;20560;-75
2022/08/04 03:43:15;;;;;;;24.85;9.60;;;;;;;20.49;54.29;99952.38;4976421;28;20055;-76
2022/08/04 03:46:24;;;;;;;19.40;8.77;;;;;;;20.66;53.59;99957.78;4991779;28;20589;-76
2022/08/04 03:49:01;;;;;;;25.58;9.02;;;;;;;20.83;53.60;99957.56;4976957;28;20505;-76
2022/08/04 03:54:57;;;;;;;23.27;9.30;;;;;;;21.17;53.24;99955.56;4992229;28;20185;-76
2022/08/04 03:57:57;;;;;;;20.50;9.40;;;;;;;21.07;52.49;99964.81;4977022;28;20454;-77
2022/08/04 04:01:02;;;;;;;14.43;8.20;;;;;;;21.15;51.84;99957.66;4992302;28;20050;-77
2022/08/04 04:03:47;;;;;;;24.23;8.77;;;;;;;21.39;51.60;99957.56;4976123;28;20074;-77
2022/08/04 04:06:30;;;;;;;28.20;8.18;;;;;;;21.63;51.55;99956.59;4992142;28;20085;-77
2022/08/04 04:09:14;;;;;;;21.08;8.38;;;;;;;21.73;50.98;99934.56;4975802;28;20128;-77
2022/08/04 04:11:50;;;;;;;16.98;7.00;;;;;;;22.03;50.62;99947.28;4975344;28;20042;-75
2022/08/04 04:14:34;;;;;;;18.05;7.50;;;;;;;22.35;49.89;99939.06;4974848;28;20054;-78
2022/08/04 04:17:21;;;;;;;19.58;6.93;;;;;;;22.68;49.35;99954.06;4990677;28;20043;-75
2022/08/04 04:20:20;;;;;;;15.05;6.18;;;;;;;22.89;48.81;99955.19;4975601;28;20047;-76
2022/08/04 04:23:14;;;;;;;18.25;8.10;;;;;;;23.27;48.05;99951.34;4975532;28;20074;-77
2022/08/04 04:25:41;;;;;;;24.90;7.55;;;;;;;23.58;47.32;99963.03;4975452;28;20035;-75
2022/08/04 04:28:34;;;;;;;21.30;7.90;;;;;;;23.84;46.38;99957.91;4974960;28;20501;-77
2022/08/04 04:31:26;;;;;;;17.42;7.15;;;;;;;23.99;46.22;99955.97;4991469;28;20061;-75
2022/08/04 04:34:20;;;;;;;20.85;7.32;;;;;;;24.26;45.91;99960.81;4991066;28;20051;-75
2022/08/04 04:36:52;;;;;;;17.23;5.90;;;;;;;24.39;44.78;99955.53;4976441;28;20035;-76
2022/08/04 04:39:17;;;;;;;18.85;6.20;;;;;;;24.50;44.20;99956.88;4991206;28;20055;-75
2022/08/04 04:41:56;;;;;;;29.38;6.03;;;;;;;24.57;43.71;99947.69;4976373;28;20057;-76
2022/08/04 04:44:27;;;;;;;16.45;6.38;;;;;;;24.44;43.57;99962.06;4974627;28;20494;-75
2022/08/04 04:47:20;;;;;;;18.27;6.10;;;;;;;24.58;43.87;99957.56;4974197;28;20043;-75
2022/08/04 04:49:58;;;;;;;21.52;6.68;;;;;;;24.71;43.74;99941.28;4976284;28;20074;-75
2022/08/04 04:52:46;;;;;;;14.20;6.53;;;;;;;24.69;43.48;99951.56;4990964;28;20042;-76
2022/08/04 04:55:15;;;;;;;31.63;5.88;;;;;;;24.66;43.19;99956.56;4975953;28;20514;-76
2022/08/04 04:57:41;;;;;;;;;;;;;;;24.77;43.36;99955.19;4976443;28;20489;-74
2022/08/04 05:00:10;;;;;;;18.50;5.13;;;;;;;24.91;42.91;99960.53;4974635;28;19943;-76
2022/08/04 05:02:54;;;;;;;25.48;5.20;;;;;;;25.05;42.92;99961.47;4974385;28;20038;-75
2022/08/04 05:05:26;;;;;;;17.00;4.40;;;;;;;25.23;42.56;99952.72;4991133;28;20050;-75
2022/08/04 05:08:10;;;;;;;16.40;4.63;;;;;;;25.33;42.60;99947.75;4990652;28;20054;-76
2022/08/04 05:10:48;;;;;;;18.05;4.18;;;;;;;25.53;42.16;99957.91;4990864;28;20051;-75
2022/08/04 05:13:20;;;;;;;14.65;3.95;;;;;;;25.55;40.85;99951.19;4990659;28;20520;-74
2022/08/04 05:15:48;;;;;;;13.32;3.63;;;;;;;25.54;40.92;99937.69;4975688;28;20490;-77
2022/08/04 05:18:18;;;;;;;;;;;;;;;25.69;41.12;99952.09;4975643;28;20045;-74
2022/08/04 05:20:51;;;;;;;11.98;3.28;;;;;;;25.78;40.77;99948.13;4974136;28;20397;-76
2022/08/04 05:23:23;;;;;;;17.38;3.83;;;;;;;25.83;40.02;99940.13;4974353;28;20129;-76
2022/08/04 05:26:00;;;;;;;17.55;4.00;;;;;;;25.87;39.88;99949.63;4974064;28;20559;-76
2022/08/04 05:28:37;;;;;;;13.80;3.35;;;;;;;25.91;40.34;99948.19;4975499;28;20137;-75
2022/08/04 05:31:12;;;;;;;14.25;3.47;;;;;;;25.95;39.98;99945.00;4990411;28;20402;-75
2022/08/04 05:34:13;;;;;;;21.17;3.30;;;;;;;26.09;39.90;99954.94;4975182;28;20168;-75
2022/08/04 05:36:47;;;;;;;15.27;3.00;;;;;;;26.15;39.47;99948.63;4983764;28;20137;-75
2022/08/04 05:39:24;;;;;;;7.80;2.72;;;;;;;26.12;38.97;99960.00;4974149;28;20042;-76
2022/08/04 05:41:51;;;;;;;7.75;2.65;;;;;;;26.02;39.29;99954.91;4990224;28;20038;-76
2022/08/04 05:44:19;;;;;;;7.93;2.35;;;;;;;25.96;39.48;99952.19;4973738;28;20049;-75
2022/08/04 05:46:48;;;;;;;10.93;2.15;;;;;;;26.06;38.86;99931.53;4974836;28;20137;-74
2022/08/04 05:49:15;;;;;;;10.90;2.30;;;;;;;26.21;38.72;99938.72;4973557;28;20049;-74
2022/08/04 05:51:42;;;;;;;9.68;2.13;;;;;;;26.30;38.97;99941.03;4957531;28;20061;-75
2022/08/04 05:54:10;;;;;;;8.18;1.80;;;;;;;26.42;37.75;99945.88;4973664;28;20061;-75
2022/08/04 05:56:37;;;;;;;6.13;1.87;;;;;;;26.43;38.28;99947.56;4974863;28;20043;-76
2022/08/04 05:59:05;;;;;;;8.55;1.98;;;;;;;26.57;38.24;99943.81;4974461;28;20282;-75
2022/08/04 06:01:32;;;;;;;15.80;1.90;;;;;;;26.75;37.93;99933.03;4974597;28;20051;-76
2022/08/04 06:04:01;;;;;;;8.85;1.88;;;;;;;26.84;37.60;99939.97;4974694;28;20322;-75
2022/08/04 06:06:28;;;;;;;;;;;;;;;26.81;37.86;99940.38;4974010;28;20070;-76
2022/08/04 06:08:55;;;;;;;6.80;1.40;;;;;;;26.79;37.83;99934.28;4989345;28;20008;-76
2022/08/04 06:11:23;;;;;;;5.07;1.70;;;;;;;26.88;38.06;99929.41;4989416;28;20433;-76
2022/08/04 06:13:53;;;;;;;8.45;1.77;;;;;;;27.10;37.58;99938.22;4973044;28;20461;-76
2022/08/04 06:16:22;;;;;;;7.57;1.70;;;;;;;27.04;37.29;99923.47;4974280;28;20048;-76
2022/08/04 06:18:52;;;;;;;10.27;2.20;;;;;;;27.19;37.31;99936.09;4989002;28;20097;-75
2022/08/04 06:21:21;;;;;;;13.45;1.90;;;;;;;27.24;37.15;99920.66;4973997;28;20514;-75
2022/08/04 06:23:49;;;;;;;15.02;1.63;;;;;;;27.31;36.89;99926.97;4989301;28;20126;-76
2022/08/04 06:26:18;;;;;;;4.00;1.92;;;;;;;27.17;37.13;99932.75;4974090;28;20053;-76
2022/08/04 06:28:50;;;;;;;10.23;2.40;;;;;;;27.30;37.07;99933.50;4974087;28;20101;-76
2022/08/04 06:34:18;;;;;;;5.18;1.67;;;;;;;27.63;37.05;99931.69;4951367;28;20059;-75
2022/08/04 06:36:47;;;;;;;4.68;1.95;;;;;;;27.81;36.69;99935.41;4973855;28;20051;-76
2022/08/04 06:39:13;;;;;;;7.00;1.70;;;;;;;27.79;36.16;99926.53;4989052;28;20050;-74
2022/08/04 06:41:39;;;;;;;2.55;1.40;;;;;;;27.73;35.42;99910.91;4973944;28;20053;-76
2022/08/04 06:44:09;;;;;;;6.95;1.45;;;;;;;27.55;35.36;99930.03;4972583;28;20073;-75
2022/08/04 06:46:38;;;;;;;9.10;1.70;;;;;;;27.63;36.00;99932.50;4988974;28;20057;-76
2022/08/04 06:49:05;;;;;;;10.00;1.85;;;;;;;27.96;35.93;99934.25;4973660;28;20065;-76
2022/08/04 06:51:35;;;;;;;4.07;1.45;;;;;;;28.24;35.31;99929.16;4973652;28;20137;-75
2022/08/04 06:54:02;;;;;;;11.93;1.80;;;;;;;28.03;34.24;99927.66;4972830;28;20445;-76
2022/08/04 06:56:29;;;;;;;2.58;1.27;;;;;;;27.72;34.43;99931.22;4956307;28;20046;-76
2022/08/04 06:58:58;;;;;;;6.00;1.50;;;;;;;27.81;34.61;99932.66;4972219;28;20046;-77
2022/08/04 07:01:26;;;;;;;1.40;1.30;;;;;;;27.68;34.08;99907.13;4972428;28;20042;-75
2022/08/04 07:03:53;;;;;;;6.07;1.45;;;;;;;27.65;34.33;99924.91;4956505;28;20035;-75
2022/08/04 07:06:21;;;;;;;5.10;1.45;;;;;;;27.87;34.55;99917.22;4972664;28;20126;-76
2022/08/04 07:08:48;;;;;;;5.28;1.60;;;;;;;28.27;34.32;99923.22;4972565;28;20050;-75
2022/08/04 07:11:14;;;;;;;6.55;1.63;;;;;;;28.42;33.80;99916.59;4977190;28;20039;-75
2022/08/04 07:13:42;;;;;;;4.72;1.70;;;;;;;28.43;33.03;99919.09;4992845;28;20076;-76
2022/08/04 07:16:12;;;;;;;2.45;1.33;;;;;;;28.49;33.84;99925.63;4977616;28;20051;-76
2022/08/04 07:18:37;;;;;;;6.63;1.55;;;;;;;28.54;33.77;99912.03;4977932;28;20042;-76
2022/08/04 07:21:04;;;;;;;6.72;1.33;;;;;;;28.56;33.88;99909.91;4992922;28;20085;-76
2022/08/04 07:23:30;;;;;;;4.68;1.63;;;;;;;28.67;33.76;99908.31;4976403;28;20121;-75
2022/08/04 07:25:57;;;;;;;4.88;1.48;;;;;;;28.57;33.20;99911.56;4977426;28;20042;-76
2022/08/04 07:28:25;;;;;;;13.30;1.45;;;;;;;28.73;33.05;99904.63;4975912;28;20042;-76
2022/08/04 07:30:54;;;;;;;7.75;1.30;;;;;;;29.04;33.28;99909.22;4977232;28;20418;-76
2022/08/04 07:33:21;;;;;;;4.53;1.20;;;;;;;29.00;32.19;99910.75;4976043;28;20465;-75
2022/08/04 07:35:58;;;;;;;2.22;1.30;;;;;;;28.35;33.07;99899.25;4960487;28;20050;-75
2022/08/04 07:38:24;;;;;;;7.63;1.65;;;;;;;28.54;33.06;99901.00;4976259;28;20153;-75
2022/08/04 07:40:50;;;;;;;4.30;1.90;;;;;;;28.86;33.59;99895.41;4977236;28;20082;-75
2022/08/04 07:43:16;;;;;;;11.38;1.95;;;;;;;29.39;32.68;99894.78;4992056;28;20073;-75
2022/08/04 07:45:43;;;;;;;8.02;1.83;;;;;;;30.00;31.71;99886.28;4976887;28;20490;-76
2022/08/04 07:48:10;;;;;;;3.00;1.20;;;;;;;30.23;31.53;99879.97;4976883;28;20042;-75
2022/08/04 07:50:37;;;;;;;10.13;1.77;;;;;;;30.42;30.95;99890.91;4975733;28;20049;-75
2022/08/04 07:53:03;;;;;;;6.68;2.10;;;;;;;30.70;30.74;99891.03;4975367;28;20070;-75
2022/08/04 07:55:30;;;;;;;2.58;1.60;;;;;;;31.02;30.75;99885.13;4991853;28;20047;-76
2022/08/04 07:57:55;;;;;;;7.25;1.50;;;;;;;30.96;28.94;99897.16;4975623;28;20049;-75
2022/08/04 08:00:21;;;;;;;3.33;1.20;;;;;;;31.10;29.08;99895.78;4975548;28;20137;-75
2022/08/04 08:02:49;;;;;;;5.00;1.42;;;;;;;30.98;28.42;99881.16;4991454;28;20112;-76
2022/08/04 08:05:18;;;;;;;5.50;1.17;;;;;;;31.01;28.34;99886.22;4974970;28;20043;-75
2022/08/04 08:07:47;;;;;;;;;;;;;;;30.84;28.27;99888.91;4975771;28;20053;-75
2022/08/04 08:10:13;;;;;;;4.20;1.00;;;;;;;31.12;28.03;99890.88;4975563;28;19928;-76
2022/08/04 08:12:41;;;;;;;2.85;1.10;;;;;;;31.73;27.76;99882.13;4975077;28;20141;-76
2022/08/04 08:15:08;;;;;;;9.35;1.52;;;;;;;32.22;26.92;99882.44;4975485;28;20046;-75
2022/08/04 08:17:34;;;;;;;13.88;2.15;;;;;;;31.94;26.32;99875.91;4991539;28;20101;-76
2022/08/04 08:20:01;;;;;;;8.52;1.65;;;;;;;30.23;28.24;99876.38;4951341;29;20099;-75
2022/08/04 08:22:28;;;;;;;2.55;1.33;;;;;;;29.76;29.00;99882.63;4918744;29;20064;-75
2022/08/04 08:24:54;;;;;;;3.50;1.38;;;;;;;29.68;29.47;99880.22;4935780;29;20048;-76
2022/08/04 08:27:20;;;;;;;8.80;1.58;;;;;;;30.22;28.77;99880.22;4935727;29;20043;-75
2022/08/04 08:29:46;;;;;;;6.68;1.40;;;;;;;30.41;28.29;99883.72;4935608;29;20144;-76
2022/08/04 08:32:13;;;;;;;5.40;1.58;;;;;;;30.13;28.82;99873.38;4935559;29;20055;-75
2022/08/04 08:34:40;;;;;;;9.68;1.80;;;;;;;29.88;29.64;99890.09;4935439;29;20521;-75
2022/08/04 08:37:18;;;;;;;4.18;1.70;;;;;;;29.84;29.77;99884.22;4935490;29;20146;-76
2022/08/04 08:39:44;;;;;;;;;;;;;;;29.90;29.84;99890.69;4920489;29;20086;-76
2022/08/04 08:42:37;;;;;;;4.30;1.40;;;;;;;30.53;29.33;99883.72;4935305;29;19962;-75
2022/08/04 08:45:34;;;;;;;2.00;1.48;;;;;;;31.22;27.99;99887.50;4935269;29;20060;-76
2022/08/04 08:48:24;;;;;;;8.27;1.50;;;;;;;31.65;27.85;99884.22;4919364;29;20043;-75
2022/08/04 08:50:58;;;;;;;5.22;1.45;;;;;;;32.10;27.34;99880.59;4935182;29;20066;-76
2022/08/04 08:53:43;;;;;;;4.47;1.77;;;;;;;32.03;26.92;99885.47;4919222;29;20507;-75
2022/08/04 08:56:27;;;;;;;5.30;1.40;;;;;;;32.06;26.79;99884.97;4919122;29;20044;-75
2022/08/04 08:58:59;;;;;;;6.32;1.30;;;;;;;31.80;26.93;99891.09;4974638;28;20082;-75
2022/08/04 09:01:34;;;;;;;7.95;1.45;;;;;;;30.98;27.53;99889.44;4974380;28;20039;-75
2022/08/04 09:04:35;;;;;;;6.85;1.52;;;;;;;30.27;28.47;99888.63;4990721;28;20045;-76
2022/08/04 09:07:10;;;;;;;6.68;1.92;;;;;;;30.02;29.26;99897.06;4957763;28;20133;-76
2022/08/04 09:09:48;;;;;;;6.13;1.75;;;;;;;30.34;29.60;99883.81;4958187;28;20057;-76
2022/08/04 09:12:35;;;;;;;14.30;1.65;;;;;;;30.42;29.34;99874.34;4990077;28;20055;-76
2022/08/04 09:15:12;;;;;;;10.32;1.40;;;;;;;30.83;28.98;99887.19;4973940;28;20422;-76
2022/08/04 09:17:56;;;;;;;7.32;1.33;;;;;;;30.86;28.48;99875.69;4975315;28;20061;-76
2022/08/04 09:20:30;;;;;;;4.35;1.25;;;;;;;31.14;28.12;99888.72;4974030;28;20433;-75
2022/08/04 09:23:16;;;;;;;4.38;1.20;;;;;;;30.99;27.66;99885.59;4973960;28;20053;-75
2022/08/04 09:26:17;;;;;;;1.48;1.10;;;;;;;30.98;27.42;99889.44;4973743;28;20043;-77
2022/08/04 09:29:07;;;;;;;1.27;1.13;;;;;;;30.67;27.50;99886.00;4981500;28;20569;-75
2022/08/04 09:31:55;;;;;;;4.40;0.80;;;;;;;31.10;26.96;99884.72;4974094;28;20042;-75
2022/08/04 09:34:50;;;;;;;6.20;1.50;;;;;;;31.65;26.66;99886.97;4964637;28;20145;-76
2022/08/04 09:37:32;;;;;;;3.95;1.30;;;;;;;31.94;26.06;99864.84;4973920;28;20125;-75
2022/08/04 09:40:14;;;;;;;7.40;1.27;;;;;;;31.62;26.36;99865.34;4974002;28;20054;-76
2022/08/04 09:42:57;;;;;;;6.72;1.58;;;;;;;31.98;26.50;99871.56;4974194;28;20042;-74
2022/08/04 09:45:39;;;;;;;4.97;1.10;;;;;;;32.46;26.15;99872.94;4989747;28;20097;-75
2022/08/04 09:48:11;;;;;;;2.70;1.17;;;;;;;33.22;25.62;99875.09;4973636;28;20043;-76
2022/08/04 09:50:42;;;;;;;6.05;1.25;;;;;;;33.81;24.33;99873.25;4974820;28;20432;-77
2022/08/04 09:53:36;;;;;;;7.18;1.55;;;;;;;33.77;24.56;99879.56;4974035;28;20038;-75
2022/08/04 09:56:37;;;;;;;4.40;1.30;;;;;;;33.95;24.47;99881.97;4989594;28;20097;-76
2022/08/04 09:59:32;;;;;;;7.22;1.33;;;;;;;33.28;24.34;99882.34;4989503;28;20105;-77
2022/08/04 10:02:06;;;;;;;6.93;1.50;;;;;;;32.33;25.59;99878.75;4969903;28;20142;-76
2022/08/04 10:04:34;;;;;;;5.50;1.25;;;;;;;31.78;26.35;99876.69;4973516;28;20042;-76
2022/08/04 10:07:18;;;;;;;5.90;1.40;;;;;;;31.44;26.83;99874.72;4973169;28;20046;-75
2022/08/04 10:10:03;;;;;;;5.13;1.80;;;;;;;31.81;27.02;99876.19;4973875;28;20057;-75
2022/08/04 10:12:51;;;;;;;6.40;1.58;;;;;;;30.92;27.53;99880.22;4973212;28;20061;-75
2022/08/04 10:15:17;;;;;;;4.50;1.17;;;;;;;31.54;27.33;99882.34;4974637;28;20038;-75
2022/08/04 10:18:14;;;;;;;6.05;1.30;;;;;;;32.84;25.77;99874.84;4957204;28;20061;-76
2022/08/04 10:21:21;;;;;;;1.45;0.98;;;;;;;34.00;23.61;99876.50;4973563;28;20058;-75
2022/08/04 10:24:21;;;;;;;6.15;1.33;;;;;;;34.22;22.79;99881.09;4974249;28;20097;-76
2022/08/04 10:27:15;;;;;;;12.52;1.77;;;;;;;34.25;22.64;99878.63;4973291;28;20109;-76
2022/08/04 10:29:44;;;;;;;5.53;1.10;;;;;;;34.97;22.78;99870.78;4972998;28;20182;-76
2022/08/04 10:32:17;;;;;;;2.63;1.30;;;;;;;35.59;21.30;99880.25;4972828;28;20080;-75
2022/08/04 10:34:57;;;;;;;5.00;1.00;;;;;;;34.82;21.94;99882.66;4988999;28;20058;-76
2022/08/04 10:37:27;;;;;;;6.28;1.10;;;;;;;34.77;22.22;99885.41;4973043;28;20043;-75
2022/08/04 10:40:35;;;;;;;7.13;1.13;;;;;;;35.66;21.90;99866.91;4972915;28;20457;-75
2022/08/04 10:43:23;;;;;;;5.75;0.93;;;;;;;36.42;20.31;99868.88;4989303;28;20051;-76
2022/08/04 10:46:06;;;;;;;12.40;1.20;;;;;;;36.77;19.66;99876.34;4973225;28;20126;-75
2022/08/04 10:48:46;;;;;;;3.42;1.02;;;;;;;37.53;19.61;99874.41;4973806;28;20517;-76
2022/08/04 10:51:20;;;;;;;2.33;1.10;;;;;;;38.32;18.92;99864.03;4972780;28;20124;-76
2022/08/04 10:53:54;;;;;;;3.20;0.90;;;;;;;38.44;18.40;99867.31;4973650;28;20117;-75
2022/08/04 10:56:31;;;;;;;11.07;1.67;;;;;;;38.07;18.35;99865.13;4972811;28;20134;-75
2022/08/04 10:59:03;;;;;;;5.20;1.00;;;;;;;35.92;20.14;99876.09;4973804;28;20051;-75
2022/08/04 11:01:34;;;;;;;12.82;1.20;;;;;;;33.96;21.79;99869.75;4989081;28;20134;-76
2022/08/04 11:04:11;;;;;;;7.45;1.10;;;;;;;32.88;23.30;99870.47;4988905;28;20047;-76
2022/08/04 11:06:37;;;;;;;3.50;1.33;;;;;;;32.27;23.70;99868.69;4972746;28;20450;-76
2022/08/04 11:09:04;;;;;;;3.50;1.17;;;;;;;31.95;25.07;99866.53;4972236;28;20047;-75
2022/08/04 11:11:34;;;;;;;8.60;1.30;;;;;;;31.82;25.60;99861.28;4956625;28;20093;-77
2022/08/04 11:14:15;;;;;;;5.90;1.10;;;;;;;33.21;24.60;99868.72;4972586;28;20469;-76
2022/08/04 11:16:59;;;;;;;4.68;1.70;;;;;;;34.38;23.74;99860.72;4972240;28;20074;-76
2022/08/04 11:20:07;;;;;;;10.65;1.40;;;;;;;35.63;21.78;99850.78;4956573;28;20138;-76
2022/08/04 11:22:37;;;;;;;4.60;1.20;;;;;;;34.65;22.76;99866.19;4955734;28;20046;-76
2022/08/04 11:25:25;;;;;;;5.70;1.40;;;;;;;33.44;23.79;99867.56;4973633;28;20047;-76
2022/08/04 11:27:59;;;;;;;3.70;1.10;;;;;;;32.53;24.91;99865.25;4973463;28;20521;-76
2022/08/04 11:30:46;;;;;;;3.15;1.10;;;;;;;31.91;25.55;99865.34;4972298;28;20503;-76
2022/08/04 11:33:31;;;;;;;2.88;1.30;;;;;;;31.68;25.72;99867.13;4988176;28;20050;-76
2022/08/04 11:36:08;;;;;;;5.57;1.38;;;;;;;31.30;26.32;99872.44;4988656;28;20106;-76
2022/08/04 11:39:17;;;;;;;4.78;1.20;;;;;;;31.30;26.17;99864.16;4972078;28;20049;-77
2022/08/04 11:42:01;;;;;;;6.15;1.15;;;;;;;33.10;24.23;99875.22;4973592;28;20201;-76
2022/08/04 11:44:47;;;;;;;4.07;1.20;;;;;;;34.89;22.21;99866.56;4972824;28;20046;-78
2022/08/04 11:47:37;;;;;;;3.25;1.30;;;;;;;35.96;21.18;99857.75;4972004;28;20043;-76
2022/08/04 11:50:10;;;;;;;6.95;1.40;;;;;;;36.98;20.17;99868.81;4972089;28;20051;-75
2022/08/04 11:52:42;;;;;;;1.90;1.20;;;;;;;36.79;19.37;99862.97;4987991;28;20043;-76
2022/08/04 11:55:12;;;;;;;8.75;1.23;;;;;;;36.80;19.75;99869.38;4973009;28;20133;-75
2022/08/04 11:57:38;;;;;;;1.48;1.05;;;;;;;38.10;19.07;99859.78;4991403;28;20085;-74
2022/08/04 12:00:11;;;;;;;3.00;1.23;;;;;;;39.12;18.04;99866.28;4976739;28;20089;-75
2022/08/04 12:02:58;;;;;;;3.83;1.10;;;;;;;39.85;17.59;99861.38;4975342;28;20529;-76
2022/08/04 12:05:29;;;;;;;;;;;;;;;40.24;16.77;99864.63;4975851;28;20485;-76
2022/08/04 12:08:01;;;;;;;7.20;1.10;;;;;;;40.00;16.14;99867.53;4976541;28;19922;-75
2022/08/04 12:10:42;;;;;;;3.45;1.20;;;;;;;38.06;17.61;99852.25;4975141;28;20047;-75
2022/08/04 12:13:14;;;;;;;2.58;1.00;;;;;;;38.77;17.57;99865.53;4991438;28;20054;-75
2022/08/04 12:16:12;;;;;;;7.28;1.15;;;;;;;39.22;17.34;99865.31;4974815;28;20042;-76
2022/08/04 12:19:12;;;;;;;3.90;1.15;;;;;;;37.34;18.70;99869.44;4975629;28;20514;-75
2022/08/04 12:21:44;;;;;;;3.70;1.33;;;;;;;35.92;20.17;99863.03;4976270;28;20073;-75
2022/08/04 12:24:22;;;;;;;7.78;1.50;;;;;;;35.09;21.01;99865.03;4974980;28;20458;-75